Anthony Turner

Scout - Barnsley
4 Apr 2028
Dienstag
Verarbeitung

Persönlichkeit

Anpassungsfähigkeit (17) Ehrgeiz (6) Kontroverse (20) Loyalität (9) Druck (16) Professionalität (1) Fairness (5) Temperament (1)

Profil

Trainerstil Demokratisch
Lizenz Nationale A
Entschlossenheit 11
Menschenführung 9
Motivation 7
Disziplin 9
Arbeitszufriedenheit
100%
Ermüdung
0%
Rolle Scout
Gehalt 82.0K p/W
Vertrag 14.03.2030

Leistung

Verhalten Gut
Trainingseffektivität
40%
Spielerentwicklung
40%
Verletzungsprävention
25%
Taktische Umsetzung
40%

Aktuell beobachtet

53
Spieler Verein Status Fähigkeit Vertrauen Beobachtet Zuletzt beobachtet Letzte Stimme
Timothy Jackson Notts County Verloren 89 / 97 69% 1 01.01.2028 -
Agustín Gallo Tristán Suárez Aktiv 121 / 107 40% 1 06.07.2027 -
Harry Cornick AFC Wimbledon Aktiv 103 / 102 40% 1 06.07.2027 -
Lorenzo De Leo Renate Aktiv 105 / 107 40% 4 05.07.2027 -
Nicola Nanni Arzignano Aktiv 106 / 104 40% 2 05.07.2027 -
Anas Alaoui Lecco Aktiv 96 / 97 40% 1 05.07.2027 -
Michael De Marchi Pergolettese Aktiv 102 / 100 40% 2 03.07.2027 -
Giacomo Sali AlbinoLeffe Aktiv 107 / 107 40% 1 03.07.2027 -
Andrea Tiritiello Virtus Entella Aktiv 119 / 123 40% 2 01.07.2027 -
Kamran Aliev SKA Khabarovsk Aktiv 97 / 101 40% 2 29.06.2027 -
Konstantin Pliev SKA Khabarovsk Aktiv 94 / 110 40% 1 28.06.2027 -
Anthony Uzodimma Anorthosis Aktiv 103 / 99 40% 1 28.06.2027 -
Andrea Mattioli Arzignano Aktiv 110 / 102 40% 1 27.06.2027 -
Rafael Arace Dinamo Tbilisi Aktiv 118 / 101 40% 1 27.06.2027 -
Kevin De La Hoz Metropolitanos Aktiv 101 / 100 40% 1 24.06.2027 -
Karlo Lulić Casarano Aktiv 98 / 98 40% 1 24.06.2027 -
Nicola Murru Gubbio Aktiv 115 / 114 40% 2 23.06.2027 -
Federico Recalde Madryn Aktiv 119 / 118 40% 1 23.06.2027 -
Mattia Muroni Alcione Milano Aktiv 101 / 102 40% 1 23.06.2027 -
Jacopo Petriccione Catanzaro Aktiv 122 / 119 40% 1 22.06.2027 -
Dominic Iorfa Sheffield Wednesday Aktiv 120 / 108 40% 1 21.06.2027 -
Emiliano Purita All Boys Aktiv 95 / 101 40% 1 21.06.2027 -
Mateo Ospina Atletico Venezuela Aktiv 119 / 120 40% 2 20.06.2027 -
Michael Rose Salford City Aktiv 102 / 99 40% 1 20.06.2027 -
Pavel Maslov Chaika Aktiv 102 / 97 40% 1 20.06.2027 -
Bojan Roganović Torpedo Moscow Aktiv 115 / 107 40% 1 19.06.2027 -
John Swift Portsmouth Aktiv 125 / 118 40% 1 17.06.2027 -
Darko Todorović Fakel Aktiv 116 / 110 40% 1 17.06.2027 -
Filippo Pirola Alcione Milano Aktiv 99 / 112 40% 1 16.06.2027 -
Brendan Galloway Plymouth Argyle Aktiv 104 / 103 40% 1 16.06.2027 -
Tomás Bolzicco Chaco For Ever Aktiv 108 / 103 40% 1 15.06.2027 -
Alberto Spagnoli Union Brescia Aktiv 102 / 103 40% 1 15.06.2027 -
Harry Smith Barnet Aktiv 104 / 104 40% 1 13.06.2027 -
Cohen Bramall Cambridge United Aktiv 114 / 108 40% 1 11.06.2027 -
Maxime Giron Foggia Aktiv 105 / 107 40% 1 11.06.2027 -
Dean Huiberts Pro Vercelli Aktiv 109 / 99 40% 1 11.06.2027 -
Filippo Costa Vicenza Aktiv 120 / 117 40% 1 09.06.2027 -
Najeeb Ibrahim Niger Tornadoes Aktiv 74 / 77 40% 1 27.01.2027 -
Alexandr Komissarov Torpedo Vladimir Aktiv 71 / 77 40% 1 27.01.2027 -
Marko Brkić NK Krka Aktiv 96 / 91 40% 1 27.01.2027 -
Kabu Agyemang Raymond Bechem United Aktiv 67 / 77 40% 3 23.01.2027 -
Sergey Gaiduk Salyut Aktiv 81 / 82 40% 2 21.01.2027 -
Sheldon Dinesh Stockport County Aktiv 90 / 95 40% 1 21.01.2027 -
Franco Sassone Defensores Aktiv 92 / 85 40% 1 17.01.2027 -
Dmitry Prokhorov Rubin Aktiv 66 / 85 40% 1 15.01.2027 -
Tcherno Jamanca Porto Aktiv 71 / 95 40% 2 14.01.2027 -
Mateus Mide Porto Aktiv 88 / 103 40% 1 14.01.2027 -
Ismaël Seoné Haugesund Aktiv 91 / 93 40% 1 11.01.2027 -
Tommaso Ravaglioli AlbinoLeffe Aktiv 95 / 93 40% 1 08.01.2027 -
Alessandro Bolzan Sorrento Aktiv 96 / 98 40% 1 06.01.2027 -
Borna Knezović Casarano Aktiv 109 / 112 40% 1 03.01.2027 -
Román Almanza Victoriia Sumy Aktiv 60 / 83 40% 1 03.01.2027 -
Asanele Shibe Agia Napa Aktiv 80 / 66 40% 1 02.01.2027 -